sensor_id;sensor_type;location;lat;lon;timestamp;P1;durP1;ratioP1;P2;durP2;ratioP2
26319;SDS011;14024;52.226;5.200;2023-08-01T00:02:22;11.15;;;3.30;;
26319;SDS011;14024;52.226;5.200;2023-08-01T00:04:50;14.73;;;4.13;;
26319;SDS011;14024;52.226;5.200;2023-08-01T00:07:16;8.75;;;3.50;;
26319;SDS011;14024;52.226;5.200;2023-08-01T00:09:42;10.15;;;3.38;;
26319;SDS011;14024;52.226;5.200;2023-08-01T00:12:08;7.38;;;3.55;;
26319;SDS011;14024;52.226;5.200;2023-08-01T00:14:35;8.95;;;3.70;;
26319;SDS011;14024;52.226;5.200;2023-08-01T00:17:01;6.53;;;3.63;;
26319;SDS011;14024;52.226;5.200;2023-08-01T00:19:27;8.77;;;3.53;;
26319;SDS011;14024;52.226;5.200;2023-08-01T00:21:53;8.18;;;3.35;;
26319;SDS011;14024;52.226;5.200;2023-08-01T00:24:19;11.10;;;3.67;;
26319;SDS011;14024;52.226;5.200;2023-08-01T00:26:45;15.07;;;4.78;;
26319;SDS011;14024;52.226;5.200;2023-08-01T00:29:12;11.20;;;4.45;;
26319;SDS011;14024;52.226;5.200;2023-08-01T00:31:38;14.13;;;4.75;;
26319;SDS011;14024;52.226;5.200;2023-08-01T00:34:04;14.02;;;5.18;;
26319;SDS011;14024;52.226;5.200;2023-08-01T00:36:30;11.95;;;3.70;;
26319;SDS011;14024;52.226;5.200;2023-08-01T00:38:57;8.40;;;4.10;;
26319;SDS011;14024;52.226;5.200;2023-08-01T00:41:23;8.80;;;4.07;;
26319;SDS011;14024;52.226;5.200;2023-08-01T00:43:49;16.50;;;4.70;;
26319;SDS011;14024;52.226;5.200;2023-08-01T00:46:15;9.32;;;3.67;;
26319;SDS011;14024;52.226;5.200;2023-08-01T00:48:41;11.70;;;4.72;;
26319;SDS011;14024;52.226;5.200;2023-08-01T00:51:07;11.45;;;4.00;;
26319;SDS011;14024;52.226;5.200;2023-08-01T00:53:34;9.65;;;3.92;;
26319;SDS011;14024;52.226;5.200;2023-08-01T00:56:01;16.20;;;4.30;;
26319;SDS011;14024;52.226;5.200;2023-08-01T00:58:27;14.20;;;4.25;;
26319;SDS011;14024;52.226;5.200;2023-08-01T01:00:53;15.95;;;4.40;;
26319;SDS011;14024;52.226;5.200;2023-08-01T01:03:20;11.88;;;4.55;;
26319;SDS011;14024;52.226;5.200;2023-08-01T01:05:57;15.88;;;4.63;;
26319;SDS011;14024;52.226;5.200;2023-08-01T01:08:26;14.57;;;4.25;;
26319;SDS011;14024;52.226;5.200;2023-08-01T01:10:52;13.90;;;4.43;;
26319;SDS011;14024;52.226;5.200;2023-08-01T01:13:18;9.88;;;4.53;;
26319;SDS011;14024;52.226;5.200;2023-08-01T01:15:44;10.07;;;4.40;;
26319;SDS011;14024;52.226;5.200;2023-08-01T01:18:10;9.85;;;4.00;;
26319;SDS011;14024;52.226;5.200;2023-08-01T01:20:36;8.63;;;4.35;;
26319;SDS011;14024;52.226;5.200;2023-08-01T01:23:05;12.18;;;4.40;;
26319;SDS011;14024;52.226;5.200;2023-08-01T01:25:32;15.35;;;4.32;;
26319;SDS011;14024;52.226;5.200;2023-08-01T01:27:59;15.57;;;4.20;;
26319;SDS011;14024;52.226;5.200;2023-08-01T01:30:26;10.20;;;4.40;;
26319;SDS011;14024;52.226;5.200;2023-08-01T01:32:53;11.73;;;4.50;;
26319;SDS011;14024;52.226;5.200;2023-08-01T01:35:19;17.65;;;4.55;;
26319;SDS011;14024;52.226;5.200;2023-08-01T01:37:45;11.27;;;4.18;;
26319;SDS011;14024;52.226;5.200;2023-08-01T01:40:11;8.95;;;3.90;;
26319;SDS011;14024;52.226;5.200;2023-08-01T01:42:37;12.52;;;4.70;;
26319;SDS011;14024;52.226;5.200;2023-08-01T01:45:03;11.68;;;4.20;;
26319;SDS011;14024;52.226;5.200;2023-08-01T01:47:29;10.70;;;4.82;;
26319;SDS011;14024;52.226;5.200;2023-08-01T01:49:55;12.30;;;4.95;;
26319;SDS011;14024;52.226;5.200;2023-08-01T01:52:21;16.25;;;4.43;;
26319;SDS011;14024;52.226;5.200;2023-08-01T01:54:47;12.35;;;4.35;;
26319;SDS011;14024;52.226;5.200;2023-08-01T01:57:13;11.63;;;4.72;;
26319;SDS011;14024;52.226;5.200;2023-08-01T01:59:39;16.95;;;4.55;;
26319;SDS011;14024;52.226;5.200;2023-08-01T02:02:05;16.63;;;4.50;;
26319;SDS011;14024;52.226;5.200;2023-08-01T02:04:31;11.55;;;4.15;;
26319;SDS011;14024;52.226;5.200;2023-08-01T02:06:57;13.43;;;4.82;;
26319;SDS011;14024;52.226;5.200;2023-08-01T02:09:24;12.40;;;4.63;;
26319;SDS011;14024;52.226;5.200;2023-08-01T02:11:50;14.68;;;4.50;;
26319;SDS011;14024;52.226;5.200;2023-08-01T02:14:16;22.15;;;5.90;;
26319;SDS011;14024;52.226;5.200;2023-08-01T02:16:42;14.95;;;5.57;;
26319;SDS011;14024;52.226;5.200;2023-08-01T02:19:08;17.45;;;4.55;;
26319;SDS011;14024;52.226;5.200;2023-08-01T02:21:34;16.30;;;5.38;;
26319;SDS011;14024;52.226;5.200;2023-08-01T02:24:00;15.80;;;5.00;;
26319;SDS011;14024;52.226;5.200;2023-08-01T02:26:26;15.07;;;5.07;;
26319;SDS011;14024;52.226;5.200;2023-08-01T02:28:52;16.27;;;7.28;;
26319;SDS011;14024;52.226;5.200;2023-08-01T02:31:18;18.25;;;7.95;;
26319;SDS011;14024;52.226;5.200;2023-08-01T02:33:43;17.63;;;6.82;;
26319;SDS011;14024;52.226;5.200;2023-08-01T02:36:09;21.85;;;7.75;;
26319;SDS011;14024;52.226;5.200;2023-08-01T02:38:35;19.17;;;7.25;;
26319;SDS011;14024;52.226;5.200;2023-08-01T02:41:01;21.83;;;8.13;;
26319;SDS011;14024;52.226;5.200;2023-08-01T02:43:27;15.93;;;6.20;;
26319;SDS011;14024;52.226;5.200;2023-08-01T02:45:53;16.20;;;5.68;;
26319;SDS011;14024;52.226;5.200;2023-08-01T02:48:19;13.35;;;5.00;;
26319;SDS011;14024;52.226;5.200;2023-08-01T02:50:45;16.00;;;6.03;;
26319;SDS011;14024;52.226;5.200;2023-08-01T02:53:11;8.32;;;4.57;;
26319;SDS011;14024;52.226;5.200;2023-08-01T02:55:37;12.45;;;3.75;;
26319;SDS011;14024;52.226;5.200;2023-08-01T02:58:04;11.65;;;4.13;;
26319;SDS011;14024;52.226;5.200;2023-08-01T03:00:30;9.35;;;3.53;;
26319;SDS011;14024;52.226;5.200;2023-08-01T03:02:57;13.88;;;3.92;;
26319;SDS011;14024;52.226;5.200;2023-08-01T03:05:23;10.20;;;3.70;;
26319;SDS011;14024;52.226;5.200;2023-08-01T03:07:48;8.48;;;3.72;;
26319;SDS011;14024;52.226;5.200;2023-08-01T03:10:14;9.10;;;4.05;;
26319;SDS011;14024;52.226;5.200;2023-08-01T03:12:40;12.43;;;4.07;;
26319;SDS011;14024;52.226;5.200;2023-08-01T03:15:07;13.45;;;4.38;;
26319;SDS011;14024;52.226;5.200;2023-08-01T03:17:34;11.57;;;4.53;;
26319;SDS011;14024;52.226;5.200;2023-08-01T03:20:00;12.68;;;4.85;;
26319;SDS011;14024;52.226;5.200;2023-08-01T03:22:25;11.95;;;4.63;;
26319;SDS011;14024;52.226;5.200;2023-08-01T03:24:51;13.48;;;4.10;;
26319;SDS011;14024;52.226;5.200;2023-08-01T03:27:18;13.50;;;4.50;;
26319;SDS011;14024;52.226;5.200;2023-08-01T03:29:44;11.50;;;4.25;;
26319;SDS011;14024;52.226;5.200;2023-08-01T03:32:10;12.77;;;5.28;;
26319;SDS011;14024;52.226;5.200;2023-08-01T03:34:36;9.32;;;4.45;;
26319;SDS011;14024;52.226;5.200;2023-08-01T03:37:04;9.98;;;4.90;;
26319;SDS011;14024;52.226;5.200;2023-08-01T03:39:30;11.50;;;4.78;;
26319;SDS011;14024;52.226;5.200;2023-08-01T03:41:56;11.93;;;4.82;;
26319;SDS011;14024;52.226;5.200;2023-08-01T03:44:22;16.75;;;5.10;;
26319;SDS011;14024;52.226;5.200;2023-08-01T03:46:48;14.18;;;5.53;;
26319;SDS011;14024;52.226;5.200;2023-08-01T03:49:14;15.60;;;4.78;;
26319;SDS011;14024;52.226;5.200;2023-08-01T03:51:40;14.68;;;4.88;;
26319;SDS011;14024;52.226;5.200;2023-08-01T03:54:06;11.65;;;5.10;;
26319;SDS011;14024;52.226;5.200;2023-08-01T03:56:32;11.18;;;4.80;;
26319;SDS011;14024;52.226;5.200;2023-08-01T03:58:58;12.07;;;4.88;;
26319;SDS011;14024;52.226;5.200;2023-08-01T04:01:24;14.27;;;5.57;;
26319;SDS011;14024;52.226;5.200;2023-08-01T04:03:50;17.33;;;4.85;;
26319;SDS011;14024;52.226;5.200;2023-08-01T04:06:16;12.10;;;5.15;;
26319;SDS011;14024;52.226;5.200;2023-08-01T04:08:43;15.77;;;4.85;;
26319;SDS011;14024;52.226;5.200;2023-08-01T04:11:09;20.38;;;5.13;;
26319;SDS011;14024;52.226;5.200;2023-08-01T04:13:36;16.67;;;4.93;;
26319;SDS011;14024;52.226;5.200;2023-08-01T04:16:02;19.38;;;6.20;;
26319;SDS011;14024;52.226;5.200;2023-08-01T04:18:28;23.02;;;7.35;;
26319;SDS011;14024;52.226;5.200;2023-08-01T04:20:54;12.02;;;5.03;;
26319;SDS011;14024;52.226;5.200;2023-08-01T04:23:20;20.13;;;5.40;;
26319;SDS011;14024;52.226;5.200;2023-08-01T04:25:46;22.02;;;5.57;;
26319;SDS011;14024;52.226;5.200;2023-08-01T04:28:12;16.63;;;6.30;;
26319;SDS011;14024;52.226;5.200;2023-08-01T04:30:38;17.23;;;6.38;;
26319;SDS011;14024;52.226;5.200;2023-08-01T04:33:04;22.02;;;6.20;;
26319;SDS011;14024;52.226;5.200;2023-08-01T04:35:30;19.05;;;6.40;;
26319;SDS011;14024;52.226;5.200;2023-08-01T04:37:56;16.75;;;7.18;;
26319;SDS011;14024;52.226;5.200;2023-08-01T04:40:22;30.83;;;7.40;;
26319;SDS011;14024;52.226;5.200;2023-08-01T04:42:48;19.73;;;6.32;;
26319;SDS011;14024;52.226;5.200;2023-08-01T04:45:14;18.25;;;6.07;;
26319;SDS011;14024;52.226;5.200;2023-08-01T04:47:40;24.80;;;7.20;;
26319;SDS011;14024;52.226;5.200;2023-08-01T04:50:06;24.20;;;7.13;;
26319;SDS011;14024;52.226;5.200;2023-08-01T04:52:32;24.20;;;7.50;;
26319;SDS011;14024;52.226;5.200;2023-08-01T04:54:58;21.23;;;6.40;;
26319;SDS011;14024;52.226;5.200;2023-08-01T04:57:24;13.05;;;5.70;;
26319;SDS011;14024;52.226;5.200;2023-08-01T04:59:50;22.23;;;6.63;;
26319;SDS011;14024;52.226;5.200;2023-08-01T05:02:16;26.05;;;7.65;;
26319;SDS011;14024;52.226;5.200;2023-08-01T05:04:42;23.70;;;6.38;;
26319;SDS011;14024;52.226;5.200;2023-08-01T05:07:08;20.58;;;6.38;;
26319;SDS011;14024;52.226;5.200;2023-08-01T05:09:34;18.88;;;6.20;;
26319;SDS011;14024;52.226;5.200;2023-08-01T05:12:00;24.35;;;6.05;;
26319;SDS011;14024;52.226;5.200;2023-08-01T05:14:26;36.03;;;7.82;;
26319;SDS011;14024;52.226;5.200;2023-08-01T05:16:52;22.25;;;7.35;;
26319;SDS011;14024;52.226;5.200;2023-08-01T05:19:18;21.85;;;7.22;;
26319;SDS011;14024;52.226;5.200;2023-08-01T05:21:44;20.73;;;6.22;;
26319;SDS011;14024;52.226;5.200;2023-08-01T05:24:11;23.33;;;5.95;;
26319;SDS011;14024;52.226;5.200;2023-08-01T05:26:37;19.38;;;6.22;;
26319;SDS011;14024;52.226;5.200;2023-08-01T05:29:03;19.08;;;6.50;;
26319;SDS011;14024;52.226;5.200;2023-08-01T05:31:29;16.85;;;5.90;;
26319;SDS011;14024;52.226;5.200;2023-08-01T05:33:55;23.35;;;6.75;;
26319;SDS011;14024;52.226;5.200;2023-08-01T05:36:21;15.98;;;6.13;;
26319;SDS011;14024;52.226;5.200;2023-08-01T05:38:47;21.13;;;6.25;;
26319;SDS011;14024;52.226;5.200;2023-08-01T05:41:13;21.55;;;6.35;;
26319;SDS011;14024;52.226;5.200;2023-08-01T05:43:39;19.80;;;5.68;;
26319;SDS011;14024;52.226;5.200;2023-08-01T05:46:05;27.85;;;6.13;;
26319;SDS011;14024;52.226;5.200;2023-08-01T05:48:31;16.52;;;6.05;;
26319;SDS011;14024;52.226;5.200;2023-08-01T05:50:57;18.08;;;5.57;;
26319;SDS011;14024;52.226;5.200;2023-08-01T05:53:23;17.15;;;5.28;;
26319;SDS011;14024;52.226;5.200;2023-08-01T05:55:49;16.38;;;5.35;;
26319;SDS011;14024;52.226;5.200;2023-08-01T05:58:16;20.85;;;5.45;;
26319;SDS011;14024;52.226;5.200;2023-08-01T06:00:41;15.18;;;4.60;;
26319;SDS011;14024;52.226;5.200;2023-08-01T06:03:08;17.73;;;5.32;;
26319;SDS011;14024;52.226;5.200;2023-08-01T06:05:34;19.08;;;5.43;;
26319;SDS011;14024;52.226;5.200;2023-08-01T06:08:00;11.90;;;4.88;;
26319;SDS011;14024;52.226;5.200;2023-08-01T06:10:26;19.10;;;5.38;;
26319;SDS011;14024;52.226;5.200;2023-08-01T06:12:52;17.27;;;5.90;;
26319;SDS011;14024;52.226;5.200;2023-08-01T06:15:18;12.45;;;5.03;;
26319;SDS011;14024;52.226;5.200;2023-08-01T06:17:44;20.20;;;5.38;;
26319;SDS011;14024;52.226;5.200;2023-08-01T06:20:10;15.07;;;5.68;;
26319;SDS011;14024;52.226;5.200;2023-08-01T06:22:36;16.75;;;5.07;;
26319;SDS011;14024;52.226;5.200;2023-08-01T06:25:02;17.45;;;5.35;;
26319;SDS011;14024;52.226;5.200;2023-08-01T06:27:28;11.98;;;4.43;;
26319;SDS011;14024;52.226;5.200;2023-08-01T06:29:54;12.38;;;4.53;;
26319;SDS011;14024;52.226;5.200;2023-08-01T06:32:20;14.63;;;4.32;;
26319;SDS011;14024;52.226;5.200;2023-08-01T06:34:46;11.90;;;4.38;;
26319;SDS011;14024;52.226;5.200;2023-08-01T06:37:12;10.85;;;4.15;;
26319;SDS011;14024;52.226;5.200;2023-08-01T06:39:38;14.60;;;4.30;;
26319;SDS011;14024;52.226;5.200;2023-08-01T06:42:04;11.07;;;3.75;;
26319;SDS011;14024;52.226;5.200;2023-08-01T06:44:30;14.30;;;4.18;;
26319;SDS011;14024;52.226;5.200;2023-08-01T06:46:56;15.90;;;3.75;;
26319;SDS011;14024;52.226;5.200;2023-08-01T06:49:22;15.15;;;4.60;;
26319;SDS011;14024;52.226;5.200;2023-08-01T06:51:49;12.88;;;4.10;;
26319;SDS011;14024;52.226;5.200;2023-08-01T06:54:15;20.45;;;4.43;;
26319;SDS011;14024;52.226;5.200;2023-08-01T06:56:41;15.90;;;4.07;;
26319;SDS011;14024;52.226;5.200;2023-08-01T06:59:12;9.50;;;3.78;;
26319;SDS011;14024;52.226;5.200;2023-08-01T07:01:38;11.32;;;3.72;;
26319;SDS011;14024;52.226;5.200;2023-08-01T07:04:05;14.45;;;4.05;;
26319;SDS011;14024;52.226;5.200;2023-08-01T07:06:31;18.88;;;3.78;;
26319;SDS011;14024;52.226;5.200;2023-08-01T07:08:57;12.25;;;4.00;;
26319;SDS011;14024;52.226;5.200;2023-08-01T07:11:23;14.52;;;4.25;;
26319;SDS011;14024;52.226;5.200;2023-08-01T07:13:49;15.90;;;3.75;;
26319;SDS011;14024;52.226;5.200;2023-08-01T07:16:15;15.07;;;4.70;;
26319;SDS011;14024;52.226;5.200;2023-08-01T07:18:41;14.70;;;4.43;;
26319;SDS011;14024;52.226;5.200;2023-08-01T07:21:07;13.48;;;3.70;;
26319;SDS011;14024;52.226;5.200;2023-08-01T07:23:33;13.57;;;3.90;;
26319;SDS011;14024;52.226;5.200;2023-08-01T07:26:00;14.35;;;4.03;;
26319;SDS011;14024;52.226;5.200;2023-08-01T07:28:26;15.25;;;3.97;;
26319;SDS011;14024;52.226;5.200;2023-08-01T07:31:02;13.77;;;4.18;;
26319;SDS011;14024;52.226;5.200;2023-08-01T07:33:29;13.10;;;4.80;;
26319;SDS011;14024;52.226;5.200;2023-08-01T07:35:55;14.48;;;3.97;;
26319;SDS011;14024;52.226;5.200;2023-08-01T07:38:22;10.93;;;4.03;;
26319;SDS011;14024;52.226;5.200;2023-08-01T07:40:48;17.23;;;5.13;;
26319;SDS011;14024;52.226;5.200;2023-08-01T07:43:14;12.95;;;4.03;;
26319;SDS011;14024;52.226;5.200;2023-08-01T07:45:40;16.70;;;4.80;;
26319;SDS011;14024;52.226;5.200;2023-08-01T07:48:06;16.30;;;5.13;;
26319;SDS011;14024;52.226;5.200;2023-08-01T07:50:32;18.20;;;5.25;;
26319;SDS011;14024;52.226;5.200;2023-08-01T07:52:58;16.10;;;5.43;;
26319;SDS011;14024;52.226;5.200;2023-08-01T07:55:24;12.57;;;4.50;;
26319;SDS011;14024;52.226;5.200;2023-08-01T07:57:50;14.65;;;4.97;;
26319;SDS011;14024;52.226;5.200;2023-08-01T08:00:16;14.73;;;5.82;;
26319;SDS011;14024;52.226;5.200;2023-08-01T08:02:43;16.33;;;5.10;;
26319;SDS011;14024;52.226;5.200;2023-08-01T08:05:09;16.08;;;5.13;;
26319;SDS011;14024;52.226;5.200;2023-08-01T08:07:38;17.98;;;4.57;;
26319;SDS011;14024;52.226;5.200;2023-08-01T08:10:04;10.55;;;3.70;;
26319;SDS011;14024;52.226;5.200;2023-08-01T08:12:31;12.25;;;4.10;;
26319;SDS011;14024;52.226;5.200;2023-08-01T08:14:57;11.70;;;4.68;;
26319;SDS011;14024;52.226;5.200;2023-08-01T08:17:23;16.02;;;4.65;;
26319;SDS011;14024;52.226;5.200;2023-08-01T08:19:49;12.68;;;4.93;;
26319;SDS011;14024;52.226;5.200;2023-08-01T08:22:15;13.73;;;4.80;;
26319;SDS011;14024;52.226;5.200;2023-08-01T08:24:41;16.55;;;4.40;;
26319;SDS011;14024;52.226;5.200;2023-08-01T08:27:07;14.52;;;4.55;;
26319;SDS011;14024;52.226;5.200;2023-08-01T08:29:33;20.17;;;4.65;;
26319;SDS011;14024;52.226;5.200;2023-08-01T08:31:59;19.33;;;5.00;;
26319;SDS011;14024;52.226;5.200;2023-08-01T08:34:25;11.43;;;4.45;;
26319;SDS011;14024;52.226;5.200;2023-08-01T08:36:51;13.35;;;3.67;;
26319;SDS011;14024;52.226;5.200;2023-08-01T08:39:17;12.93;;;4.35;;
26319;SDS011;14024;52.226;5.200;2023-08-01T08:41:50;11.38;;;4.20;;
26319;SDS011;14024;52.226;5.200;2023-08-01T08:44:17;13.90;;;3.85;;
26319;SDS011;14024;52.226;5.200;2023-08-01T08:46:45;11.02;;;3.70;;
26319;SDS011;14024;52.226;5.200;2023-08-01T08:49:13;14.90;;;4.18;;
26319;SDS011;14024;52.226;5.200;2023-08-01T08:51:40;11.82;;;4.55;;
26319;SDS011;14024;52.226;5.200;2023-08-01T08:54:06;13.15;;;3.38;;
26319;SDS011;14024;52.226;5.200;2023-08-01T08:56:33;8.32;;;3.50;;
26319;SDS011;14024;52.226;5.200;2023-08-01T08:59:00;10.75;;;3.40;;
26319;SDS011;14024;52.226;5.200;2023-08-01T09:01:26;8.93;;;3.58;;
26319;SDS011;14024;52.226;5.200;2023-08-01T09:03:53;13.55;;;4.00;;
26319;SDS011;14024;52.226;5.200;2023-08-01T09:06:21;13.45;;;3.60;;
26319;SDS011;14024;52.226;5.200;2023-08-01T09:08:50;12.07;;;3.30;;
26319;SDS011;14024;52.226;5.200;2023-08-01T09:11:19;13.23;;;3.25;;
26319;SDS011;14024;52.226;5.200;2023-08-01T09:13:45;8.40;;;2.92;;
26319;SDS011;14024;52.226;5.200;2023-08-01T09:16:11;6.93;;;2.65;;
26319;SDS011;14024;52.226;5.200;2023-08-01T09:18:47;8.60;;;2.92;;
26319;SDS011;14024;52.226;5.200;2023-08-01T09:21:13;10.30;;;3.22;;
26319;SDS011;14024;52.226;5.200;2023-08-01T09:23:39;8.60;;;2.70;;
26319;SDS011;14024;52.226;5.200;2023-08-01T09:26:12;10.63;;;3.72;;
26319;SDS011;14024;52.226;5.200;2023-08-01T09:28:38;11.77;;;3.25;;
26319;SDS011;14024;52.226;5.200;2023-08-01T09:31:04;14.25;;;3.45;;
26319;SDS011;14024;52.226;5.200;2023-08-01T09:33:40;11.82;;;3.85;;
26319;SDS011;14024;52.226;5.200;2023-08-01T09:36:09;9.48;;;3.00;;
26319;SDS011;14024;52.226;5.200;2023-08-01T09:38:35;8.50;;;2.95;;
26319;SDS011;14024;52.226;5.200;2023-08-01T09:41:02;8.65;;;3.08;;
26319;SDS011;14024;52.226;5.200;2023-08-01T09:43:35;9.15;;;3.03;;
26319;SDS011;14024;52.226;5.200;2023-08-01T09:46:02;5.63;;;2.90;;
26319;SDS011;14024;52.226;5.200;2023-08-01T09:48:29;6.80;;;2.58;;
26319;SDS011;14024;52.226;5.200;2023-08-01T09:51:05;7.10;;;2.90;;
26319;SDS011;14024;52.226;5.200;2023-08-01T09:53:31;17.23;;;3.15;;
26319;SDS011;14024;52.226;5.200;2023-08-01T09:55:59;8.80;;;3.13;;
26319;SDS011;14024;52.226;5.200;2023-08-01T09:58:26;11.52;;;4.03;;
26319;SDS011;14024;52.226;5.200;2023-08-01T10:00:55;18.73;;;3.80;;
26319;SDS011;14024;52.226;5.200;2023-08-01T10:03:21;11.18;;;2.75;;
26319;SDS011;14024;52.226;5.200;2023-08-01T10:05:47;6.50;;;2.70;;
26319;SDS011;14024;52.226;5.200;2023-08-01T10:08:16;16.98;;;3.72;;
26319;SDS011;14024;52.226;5.200;2023-08-01T10:10:43;14.80;;;3.83;;
26319;SDS011;14024;52.226;5.200;2023-08-01T10:13:10;12.13;;;3.40;;
26319;SDS011;14024;52.226;5.200;2023-08-01T10:15:38;8.65;;;3.40;;
26319;SDS011;14024;52.226;5.200;2023-08-01T10:18:04;7.47;;;2.90;;
26319;SDS011;14024;52.226;5.200;2023-08-01T10:20:30;9.50;;;3.35;;
26319;SDS011;14024;52.226;5.200;2023-08-01T10:22:56;12.75;;;2.88;;
26319;SDS011;14024;52.226;5.200;2023-08-01T10:25:23;11.15;;;3.00;;
26319;SDS011;14024;52.226;5.200;2023-08-01T10:27:59;7.55;;;3.13;;
26319;SDS011;14024;52.226;5.200;2023-08-01T10:30:26;8.32;;;3.10;;
26319;SDS011;14024;52.226;5.200;2023-08-01T10:32:54;9.07;;;2.80;;
26319;SDS011;14024;52.226;5.200;2023-08-01T10:35:31;9.82;;;3.10;;
26319;SDS011;14024;52.226;5.200;2023-08-01T10:38:03;9.60;;;2.97;;
26319;SDS011;14024;52.226;5.200;2023-08-01T10:40:42;13.63;;;3.40;;
26319;SDS011;14024;52.226;5.200;2023-08-01T10:43:21;8.30;;;2.90;;
26319;SDS011;14024;52.226;5.200;2023-08-01T10:45:47;6.28;;;2.78;;
26319;SDS011;14024;52.226;5.200;2023-08-01T10:48:13;14.52;;;3.50;;
26319;SDS011;14024;52.226;5.200;2023-08-01T10:50:39;9.90;;;2.85;;
26319;SDS011;14024;52.226;5.200;2023-08-01T10:53:06;9.65;;;3.33;;
26319;SDS011;14024;52.226;5.200;2023-08-01T10:55:43;15.23;;;4.78;;
26319;SDS011;14024;52.226;5.200;2023-08-01T10:58:09;9.38;;;2.85;;
26319;SDS011;14024;52.226;5.200;2023-08-01T11:00:35;7.90;;;3.00;;
26319;SDS011;14024;52.226;5.200;2023-08-01T11:03:01;11.23;;;3.47;;
26319;SDS011;14024;52.226;5.200;2023-08-01T11:05:27;6.75;;;2.90;;
26319;SDS011;14024;52.226;5.200;2023-08-01T11:07:58;6.60;;;2.60;;
26319;SDS011;14024;52.226;5.200;2023-08-01T11:10:27;9.57;;;3.42;;
26319;SDS011;14024;52.226;5.200;2023-08-01T11:12:53;10.13;;;3.00;;
26319;SDS011;14024;52.226;5.200;2023-08-01T11:15:19;11.93;;;3.08;;
26319;SDS011;14024;52.226;5.200;2023-08-01T11:17:52;12.82;;;3.05;;
26319;SDS011;14024;52.226;5.200;2023-08-01T11:20:19;6.63;;;3.65;;
26319;SDS011;14024;52.226;5.200;2023-08-01T11:22:53;7.47;;;2.97;;
26319;SDS011;14024;52.226;5.200;2023-08-01T11:25:20;14.00;;;3.00;;
26319;SDS011;14024;52.226;5.200;2023-08-01T11:27:46;6.28;;;2.80;;
26319;SDS011;14024;52.226;5.200;2023-08-01T11:30:12;10.18;;;2.95;;
26319;SDS011;14024;52.226;5.200;2023-08-01T11:32:38;10.10;;;2.67;;
26319;SDS011;14024;52.226;5.200;2023-08-01T11:35:04;5.18;;;2.30;;
26319;SDS011;14024;52.226;5.200;2023-08-01T11:37:30;12.77;;;3.10;;
26319;SDS011;14024;52.226;5.200;2023-08-01T11:39:56;9.98;;;2.40;;
26319;SDS011;14024;52.226;5.200;2023-08-01T11:42:23;10.52;;;3.10;;
26319;SDS011;14024;52.226;5.200;2023-08-01T11:44:49;8.32;;;2.55;;
26319;SDS011;14024;52.226;5.200;2023-08-01T11:47:16;9.25;;;3.03;;
26319;SDS011;14024;52.226;5.200;2023-08-01T11:49:46;9.90;;;2.47;;
26319;SDS011;14024;52.226;5.200;2023-08-01T11:52:28;5.35;;;2.42;;
26319;SDS011;14024;52.226;5.200;2023-08-01T11:54:54;7.68;;;2.70;;
26319;SDS011;14024;52.226;5.200;2023-08-01T11:57:21;10.90;;;2.45;;
26319;SDS011;14024;52.226;5.200;2023-08-01T11:59:51;9.05;;;2.63;;
26319;SDS011;14024;52.226;5.200;2023-08-01T12:02:25;6.80;;;2.22;;
26319;SDS011;14024;52.226;5.200;2023-08-01T12:04:51;9.52;;;2.95;;
26319;SDS011;14024;52.226;5.200;2023-08-01T12:07:18;13.15;;;2.92;;
26319;SDS011;14024;52.226;5.200;2023-08-01T12:09:44;7.85;;;3.17;;
26319;SDS011;14024;52.226;5.200;2023-08-01T12:12:10;10.07;;;2.63;;
26319;SDS011;14024;52.226;5.200;2023-08-01T12:14:40;9.13;;;3.00;;
26319;SDS011;14024;52.226;5.200;2023-08-01T12:17:06;9.43;;;2.83;;
26319;SDS011;14024;52.226;5.200;2023-08-01T12:19:32;6.38;;;2.50;;
26319;SDS011;14024;52.226;5.200;2023-08-01T12:22:01;9.77;;;2.08;;
26319;SDS011;14024;52.226;5.200;2023-08-01T12:24:27;9.35;;;2.95;;
26319;SDS011;14024;52.226;5.200;2023-08-01T12:26:53;6.28;;;2.22;;
26319;SDS011;14024;52.226;5.200;2023-08-01T12:29:19;11.65;;;2.40;;
26319;SDS011;14024;52.226;5.200;2023-08-01T12:31:45;15.25;;;2.80;;
26319;SDS011;14024;52.226;5.200;2023-08-01T12:34:11;11.32;;;3.30;;
26319;SDS011;14024;52.226;5.200;2023-08-01T12:36:37;11.18;;;3.08;;
26319;SDS011;14024;52.226;5.200;2023-08-01T12:39:03;8.45;;;2.30;;
26319;SDS011;14024;52.226;5.200;2023-08-01T12:41:35;9.75;;;2.45;;
26319;SDS011;14024;52.226;5.200;2023-08-01T12:44:01;5.88;;;2.58;;
26319;SDS011;14024;52.226;5.200;2023-08-01T12:46:27;6.38;;;2.53;;
26319;SDS011;14024;52.226;5.200;2023-08-01T12:48:53;9.57;;;2.30;;
26319;SDS011;14024;52.226;5.200;2023-08-01T12:51:19;8.32;;;2.88;;
26319;SDS011;14024;52.226;5.200;2023-08-01T12:53:45;10.30;;;2.72;;
26319;SDS011;14024;52.226;5.200;2023-08-01T12:56:11;4.43;;;2.10;;
26319;SDS011;14024;52.226;5.200;2023-08-01T12:58:37;6.15;;;2.40;;
26319;SDS011;14024;52.226;5.200;2023-08-01T13:01:03;5.25;;;2.50;;
26319;SDS011;14024;52.226;5.200;2023-08-01T13:03:29;7.55;;;2.50;;
26319;SDS011;14024;52.226;5.200;2023-08-01T13:05:55;7.10;;;2.80;;
26319;SDS011;14024;52.226;5.200;2023-08-01T13:08:22;10.02;;;2.90;;
26319;SDS011;14024;52.226;5.200;2023-08-01T13:10:48;8.55;;;3.03;;
26319;SDS011;14024;52.226;5.200;2023-08-01T13:13:15;10.65;;;3.58;;
26319;SDS011;14024;52.226;5.200;2023-08-01T13:15:42;8.68;;;2.85;;
26319;SDS011;14024;52.226;5.200;2023-08-01T13:18:09;11.45;;;3.28;;
26319;SDS011;14024;52.226;5.200;2023-08-01T13:20:35;9.48;;;2.88;;
26319;SDS011;14024;52.226;5.200;2023-08-01T13:23:01;11.57;;;3.20;;
26319;SDS011;14024;52.226;5.200;2023-08-01T13:25:28;8.52;;;2.75;;
26319;SDS011;14024;52.226;5.200;2023-08-01T13:27:54;11.25;;;3.33;;
26319;SDS011;14024;52.226;5.200;2023-08-01T13:30:20;8.23;;;3.00;;
26319;SDS011;14024;52.226;5.200;2023-08-01T13:32:46;12.93;;;3.35;;
26319;SDS011;14024;52.226;5.200;2023-08-01T13:35:12;11.25;;;2.70;;
26319;SDS011;14024;52.226;5.200;2023-08-01T13:37:39;10.10;;;2.92;;
26319;SDS011;14024;52.226;5.200;2023-08-01T13:40:05;11.27;;;3.35;;
26319;SDS011;14024;52.226;5.200;2023-08-01T13:42:31;8.02;;;3.38;;
26319;SDS011;14024;52.226;5.200;2023-08-01T13:44:58;12.93;;;2.88;;
26319;SDS011;14024;52.226;5.200;2023-08-01T13:47:25;13.73;;;3.22;;
26319;SDS011;14024;52.226;5.200;2023-08-01T13:49:51;6.18;;;2.65;;
26319;SDS011;14024;52.226;5.200;2023-08-01T13:52:16;10.05;;;3.05;;
26319;SDS011;14024;52.226;5.200;2023-08-01T13:54:42;11.18;;;3.55;;
26319;SDS011;14024;52.226;5.200;2023-08-01T13:57:08;7.90;;;3.00;;
26319;SDS011;14024;52.226;5.200;2023-08-01T13:59:34;8.02;;;2.75;;
26319;SDS011;14024;52.226;5.200;2023-08-01T14:02:01;7.05;;;3.10;;
26319;SDS011;14024;52.226;5.200;2023-08-01T14:04:28;10.40;;;3.47;;
26319;SDS011;14024;52.226;5.200;2023-08-01T14:06:54;12.70;;;4.07;;
26319;SDS011;14024;52.226;5.200;2023-08-01T14:09:20;11.73;;;3.60;;
26319;SDS011;14024;52.226;5.200;2023-08-01T14:11:46;7.40;;;3.50;;
26319;SDS011;14024;52.226;5.200;2023-08-01T14:14:12;11.95;;;3.05;;
26319;SDS011;14024;52.226;5.200;2023-08-01T14:16:38;7.82;;;2.85;;
26319;SDS011;14024;52.226;5.200;2023-08-01T14:19:04;9.25;;;3.00;;
26319;SDS011;14024;52.226;5.200;2023-08-01T14:21:31;10.38;;;3.30;;
26319;SDS011;14024;52.226;5.200;2023-08-01T14:23:57;13.35;;;2.70;;
26319;SDS011;14024;52.226;5.200;2023-08-01T14:26:23;11.07;;;2.78;;
26319;SDS011;14024;52.226;5.200;2023-08-01T14:28:49;8.45;;;2.80;;
26319;SDS011;14024;52.226;5.200;2023-08-01T14:31:15;9.75;;;2.97;;
26319;SDS011;14024;52.226;5.200;2023-08-01T14:33:41;10.57;;;2.63;;
26319;SDS011;14024;52.226;5.200;2023-08-01T14:36:08;6.47;;;2.38;;